Time;durP1;ratioP1;P1;durP2;ratioP2;P2;SDS_P1;SDS_P2;PMS_P1;PMS_P2;Temp;Humidity;BMP_temperature;BMP_pressure;BME280_temperature;BME280_humidity;BME280_pressure;Samples;Min_cycle;Max_cycle;Signal;HPM_P1;HPM_P2
2023/03/05 00:00:02;;;;;;;;;;;;;;;;;;5032206;28;20288;-59
2023/03/05 00:02:28;;;;;;;;;;;;;;;;;;5032952;28;19913;-59
2023/03/05 00:04:54;;;;;;;;;;;;;;;;;;5030606;28;19917;-60
2023/03/05 00:07:20;;;;;;;;;;;;;;;;;;5030853;28;19968;-60
2023/03/05 00:09:46;;;;;;;;;;;;;;;;;;5030620;28;19917;-59
2023/03/05 00:12:11;;;;;;;;;;;;;;;;;;5029561;28;19927;-59
2023/03/05 00:14:37;;;;;;;;;;;;;;;;;;5032494;28;20008;-59
2023/03/05 00:17:03;;;;;;;;;;;;;;;;;;5033454;28;19913;-59
2023/03/05 00:19:29;;;;;;;;;;;;;;;;;;5031839;28;19917;-59
2023/03/05 00:21:55;;;;;;;;;;;;;;;;;;5032039;28;20471;-60
2023/03/05 00:24:21;;;;;;;;;;;;;;;;;;5029886;28;20036;-59
2023/03/05 00:26:47;;;;;;;;;;;;;;;;;;5026029;28;19963;-59
2023/03/05 00:29:13;;;;;;;;;;;;;;;;;;5031017;28;20011;-59
2023/03/05 00:31:39;;;;;;;;;;;;;;;;;;5031606;28;19976;-59
2023/03/05 00:34:05;;;;;;;;;;;;;;;;;;5030472;28;19913;-60
2023/03/05 00:36:31;;;;;;;;;;;;;;;;;;5029410;28;20007;-59
2023/03/05 00:38:57;;;;;;;;;;;;;;;;;;5029708;28;19988;-59
2023/03/05 00:41:22;;;;;;;;;;;;;;;;;;5030719;28;19913;-59
2023/03/05 00:43:48;;;;;;;;;;;;;;;;;;5032157;28;20010;-59
2023/03/05 00:46:14;;;;;;;;;;;;;;;;;;5030362;28;20012;-59
2023/03/05 00:48:40;;;;;;;;;;;;;;;;;;5031667;28;20030;-59
2023/03/05 00:51:07;;;;;;;;;;;;;;;;;;5031721;28;20288;-59
2023/03/05 00:53:33;;;;;;;;;;;;;;;;;;5031283;28;19913;-59
2023/03/05 00:55:59;;;;;;;;;;;;;;;;;;5027971;28;20414;-59
2023/03/05 00:58:25;;;;;;;;;;;;;;;;;;5027065;28;19944;-59
2023/03/05 01:00:51;;;;;;;;;;;;;;;;;;5031058;28;20304;-59
2023/03/05 01:03:17;;;;;;;;;;;;;;;;;;5028233;28;19963;-59
2023/03/05 01:05:43;;;;;;;;;;;;;;;;;;5028194;28;19913;-59
2023/03/05 01:08:09;;;;;;;;;;;;;;;;;;5029840;28;19948;-59
2023/03/05 01:10:35;;;;;;;;;;;;;;;;;;5028873;28;19935;-59
2023/03/05 01:13:01;;;;;;;;;;;;;;;;;;5029486;28;19921;-59
2023/03/05 01:15:26;;;;;;;;;;;;;;;;;;5029698;28;19960;-59
2023/03/05 01:17:52;;;;;;;;;;;;;;;;;;5030761;28;20403;-59
2023/03/05 01:20:18;;;;;;;;;;;;;;;;;;5028954;28;19917;-59
2023/03/05 01:22:44;;;;;;;;;;;;;;;;;;5029516;28;20340;-59
2023/03/05 01:25:10;;;;;;;;;;;;;;;;;;5027071;28;20373;-59
2023/03/05 01:27:36;;;;;;;;;;;;;;;;;;5030013;28;19917;-59
2023/03/05 01:30:02;;;;;;;;;;;;;;;;;;5028819;28;19913;-59
2023/03/05 01:32:28;;;;;;;;;;;;;;;;;;5032434;28;19916;-59
2023/03/05 01:34:54;;;;;;;;;;;;;;;;;;5028055;28;19917;-59
2023/03/05 01:37:19;;;;;;;;;;;;;;;;;;5029738;28;20007;-59
2023/03/05 01:39:45;;;;;;;;;;;;;;;;;;5031358;28;20011;-59
2023/03/05 01:42:11;;;;;;;;;;;;;;;;;;5031573;28;19914;-59
2023/03/05 01:44:37;;;;;;;;;;;;;;;;;;5031868;28;19927;-59
2023/03/05 01:47:03;;;;;;;;;;;;;;;;;;5031201;28;19913;-59
2023/03/05 01:49:29;;;;;;;;;;;;;;;;;;5032124;28;19927;-59
2023/03/05 01:51:55;;;;;;;;;;;;;;;;;;5026105;28;19913;-59
2023/03/05 01:54:21;;;;;;;;;;;;;;;;;;5031328;28;19944;-59
2023/03/05 01:56:47;;;;;;;;;;;;;;;;;;5031501;28;20266;-59
2023/03/05 01:59:13;;;;;;;;;;;;;;;;;;5033897;28;20391;-59
2023/03/05 02:01:38;;;;;;;;;;;;;;;;;;5032274;28;19959;-59
2023/03/05 02:04:04;;;;;;;;;;;;;;;;;;5016630;28;20297;-59
2023/03/05 02:06:30;;;;;;;;;;;;;;;;;;5033931;28;19917;-59
2023/03/05 02:08:56;;;;;;;;;;;;;;;;;;5033701;28;19913;-59
2023/03/05 02:11:22;;;;;;;;;;;;;;;;;;5031696;28;20035;-59
2023/03/05 02:13:48;;;;;;;;;;;;;;;;;;5035957;28;19992;-59
2023/03/05 02:16:14;;;;;;;;;;;;;;;;;;5034483;28;19993;-59
2023/03/05 02:18:40;;;;;;;;;;;;;;;;;;5034745;28;20378;-59
2023/03/05 02:21:06;;;;;;;;;;;;;;;;;;5033560;28;19917;-59
2023/03/05 02:23:32;;;;;;;;;;;;;;;;;;5033122;28;19921;-59
2023/03/05 02:25:58;;;;;;;;;;;;;;;;;;5028117;28;19917;-59
2023/03/05 02:28:24;;;;;;;;;;;;;;;;;;5034237;28;19920;-60
2023/03/05 02:30:50;;;;;;;;;;;;;;;;;;5033560;28;19960;-59
2023/03/05 02:33:16;;;;;;;;;;;;;;;;;;5035690;28;19963;-59
2023/03/05 02:35:42;;;;;;;;;;;;;;;;;;5033869;28;19992;-59
2023/03/05 02:38:08;;;;;;;;;;;;;;;;;;5034603;28;20296;-59
2023/03/05 02:40:34;;;;;;;;;;;;;;;;;;5031983;28;19944;-59
2023/03/05 02:43:00;;;;;;;;;;;;;;;;;;5034103;28;19975;-59
2023/03/05 02:45:26;;;;;;;;;;;;;;;;;;5034857;28;20465;-59
2023/03/05 02:47:52;;;;;;;;;;;;;;;;;;5034507;28;19913;-59
2023/03/05 02:50:17;;;;;;;;;;;;;;;;;;5034383;28;20281;-59
2023/03/05 02:52:43;;;;;;;;;;;;;;;;;;5033431;28;20345;-59
2023/03/05 02:55:10;;;;;;;;;;;;;;;;;;5034096;28;19913;-59
2023/03/05 02:57:35;;;;;;;;;;;;;;;;;;5031516;28;19913;-59
2023/03/05 03:00:02;;;;;;;;;;;;;;;;;;5031758;28;20412;-59
2023/03/05 03:02:28;;;;;;;;;;;;;;;;;;5033494;28;19920;-60
2023/03/05 03:04:54;;;;;;;;;;;;;;;;;;5015336;28;20368;-59
2023/03/05 03:07:19;;;;;;;;;;;;;;;;;;5034575;28;20018;-59
2023/03/05 03:09:45;;;;;;;;;;;;;;;;;;5031963;28;20004;-59
2023/03/05 03:12:11;;;;;;;;;;;;;;;;;;5033740;28;20495;-59
2023/03/05 03:14:38;;;;;;;;;;;;;;;;;;5032489;28;19921;-60
2023/03/05 03:17:04;;;;;;;;;;;;;;;;;;5033519;28;20063;-59
2023/03/05 03:19:30;;;;;;;;;;;;;;;;;;5033972;28;20400;-59
2023/03/05 03:21:55;;;;;;;;;;;;;;;;;;5033002;28;19913;-59
2023/03/05 03:24:21;;;;;;;;;;;;;;;;;;5032105;28;19952;-60
2023/03/05 03:26:48;;;;;;;;;;;;;;;;;;5034327;28;19949;-59
2023/03/05 03:29:14;;;;;;;;;;;;;;;;;;5033825;28;19913;-59
2023/03/05 03:31:40;;;;;;;;;;;;;;;;;;5030102;28;19945;-60
2023/03/05 03:34:06;;;;;;;;;;;;;;;;;;5031880;28;20011;-59
2023/03/05 03:36:32;;;;;;;;;;;;;;;;;;5030677;28;20426;-59
2023/03/05 03:38:58;;;;;;;;;;;;;;;;;;5033482;28;19914;-59
2023/03/05 03:41:24;;;;;;;;;;;;;;;;;;5031780;28;20403;-60
2023/03/05 03:43:50;;;;;;;;;;;;;;;;;;5032656;28;19971;-60
2023/03/05 03:46:16;;;;;;;;;;;;;;;;;;5031832;28;19921;-59
2023/03/05 03:48:42;;;;;;;;;;;;;;;;;;5031468;28;20024;-59
2023/03/05 03:51:07;;;;;;;;;;;;;;;;;;5031934;28;19956;-60
2023/03/05 03:53:33;;;;;;;;;;;;;;;;;;5033294;28;20277;-59
2023/03/05 03:55:59;;;;;;;;;;;;;;;;;;5033032;28;19944;-59
2023/03/05 03:58:25;;;;;;;;;;;;;;;;;;5033133;28;19960;-59
2023/03/05 04:00:51;;;;;;;;;;;;;;;;;;5032423;28;19949;-59
2023/03/05 04:03:17;;;;;;;;;;;;;;;;;;5031594;28;20392;-59
2023/03/05 04:05:43;;;;;;;;;;;;;;;;;;5030582;28;19920;-59
2023/03/05 04:08:10;;;;;;;;;;;;;;;;;;5032033;28;19917;-59
2023/03/05 04:10:36;;;;;;;;;;;;;;;;;;5032655;28;20020;-59
2023/03/05 04:13:02;;;;;;;;;;;;;;;;;;5030018;28;20008;-59
2023/03/05 04:15:28;;;;;;;;;;;;;;;;;;5032945;28;20358;-59
2023/03/05 04:17:54;;;;;;;;;;;;;;;;;;5031875;28;19914;-59
2023/03/05 04:20:20;;;;;;;;;;;;;;;;;;5031219;28;19939;-59
2023/03/05 04:22:46;;;;;;;;;;;;;;;;;;5031969;28;19941;-60
2023/03/05 04:25:12;;;;;;;;;;;;;;;;;;5032334;28;19920;-60
2023/03/05 04:27:39;;;;;;;;;;;;;;;;;;5032927;28;20431;-59
2023/03/05 04:30:04;;;;;;;;;;;;;;;;;;5031890;28;19913;-59
2023/03/05 04:32:30;;;;;;;;;;;;;;;;;;5031720;28;20265;-59
2023/03/05 04:34:56;;;;;;;;;;;;;;;;;;5029736;28;19920;-60
2023/03/05 04:37:22;;;;;;;;;;;;;;;;;;5029656;28;19924;-59
2023/03/05 04:39:48;;;;;;;;;;;;;;;;;;5032060;28;19948;-59
2023/03/05 04:42:14;;;;;;;;;;;;;;;;;;5032139;28;19940;-59
2023/03/05 04:44:40;;;;;;;;;;;;;;;;;;5031267;28;20066;-59
2023/03/05 04:47:06;;;;;;;;;;;;;;;;;;5029589;28;19953;-59
2023/03/05 04:49:32;;;;;;;;;;;;;;;;;;5030737;28;20403;-60
2023/03/05 04:51:58;;;;;;;;;;;;;;;;;;5030981;28;19917;-60
2023/03/05 04:54:23;;;;;;;;;;;;;;;;;;5031308;28;20335;-59
2023/03/05 04:56:49;;;;;;;;;;;;;;;;;;5031309;28;20011;-59
2023/03/05 04:59:15;;;;;;;;;;;;;;;;;;5032561;28;20008;-59
2023/03/05 05:01:42;;;;;;;;;;;;;;;;;;5032450;28;19909;-60
2023/03/05 05:04:07;;;;;;;;;;;;;;;;;;5014885;28;19971;-59
2023/03/05 05:06:33;;;;;;;;;;;;;;;;;;5027600;28;19956;-60
2023/03/05 05:08:59;;;;;;;;;;;;;;;;;;5023386;28;20011;-59
2023/03/05 05:11:25;;;;;;;;;;;;;;;;;;5024736;28;19928;-59
2023/03/05 05:13:51;;;;;;;;;;;;;;;;;;5018462;28;19976;-59
2023/03/05 05:16:17;;;;;;;;;;;;;;;;;;5031713;28;20012;-59
2023/03/05 05:18:43;;;;;;;;;;;;;;;;;;5027691;28;20296;-60
2023/03/05 05:21:09;;;;;;;;;;;;;;;;;;5028580;28;19919;-60
2023/03/05 05:23:35;;;;;;;;;;;;;;;;;;5030727;28;19913;-59
2023/03/05 05:26:01;;;;;;;;;;;;;;;;;;5028411;28;19948;-59
2023/03/05 05:28:26;;;;;;;;;;;;;;;;;;5029740;28;20365;-59
2023/03/05 05:30:52;;;;;;;;;;;;;;;;;;5028849;28;19909;-59
2023/03/05 05:33:18;;;;;;;;;;;;;;;;;;5027835;28;20019;-60
2023/03/05 05:35:44;;;;;;;;;;;;;;;;;;5029624;28;20589;-60
2023/03/05 05:38:10;;;;;;;;;;;;;;;;;;5030292;28;20008;-59
2023/03/05 05:40:36;;;;;;;;;;;;;;;;;;5030406;28;19959;-59
2023/03/05 05:43:02;;;;;;;;;;;;;;;;;;5029154;28;19909;-59
2023/03/05 05:45:28;;;;;;;;;;;;;;;;;;5030040;28;19920;-60
2023/03/05 05:47:54;;;;;;;;;;;;;;;;;;5028256;28;19957;-60
2023/03/05 05:50:20;;;;;;;;;;;;;;;;;;5030198;28;20359;-59
2023/03/05 05:52:45;;;;;;;;;;;;;;;;;;5031165;28;19995;-60
2023/03/05 05:55:11;;;;;;;;;;;;;;;;;;5030261;28;19960;-60
2023/03/05 05:57:37;;;;;;;;;;;;;;;;;;5013329;28;19909;-59
2023/03/05 06:00:03;;;;;;;;;;;;;;;;;;5024613;28;20008;-60
2023/03/05 06:02:29;;;;;;;;;;;;;;;;;;5011733;28;19957;-62
2023/03/05 06:04:55;;;;;;;;;;;;;;;;;;5025498;28;19913;-59
2023/03/05 06:07:21;;;;;;;;;;;;;;;;;;5028167;28;19960;-59
2023/03/05 06:09:47;;;;;;;;;;;;;;;;;;5027889;28;20309;-60
2023/03/05 06:12:13;;;;;;;;;;;;;;;;;;5026013;28;19930;-60
2023/03/05 06:14:39;;;;;;;;;;;;;;;;;;5028813;28;19948;-59
2023/03/05 06:17:05;;;;;;;;;;;;;;;;;;5028063;28;19920;-59
2023/03/05 06:19:31;;;;;;;;;;;;;;;;;;5020586;28;19927;-59
2023/03/05 06:21:57;;;;;;;;;;;;;;;;;;5029207;28;20000;-60
2023/03/05 06:24:23;;;;;;;;;;;;;;;;;;5029230;28;19963;-60
2023/03/05 06:26:48;;;;;;;;;;;;;;;;;;5029944;28;19960;-63
2023/03/05 06:29:14;;;;;;;;;;;;;;;;;;5030579;28;20424;-60
2023/03/05 06:31:40;;;;;;;;;;;;;;;;;;5029417;28;19989;-60
2023/03/05 06:34:06;;;;;;;;;;;;;;;;;;5027612;28;19986;-59
2023/03/05 06:36:32;;;;;;;;;;;;;;;;;;5029879;28;19982;-59
2023/03/05 06:38:58;;;;;;;;;;;;;;;;;;5028405;28;19959;-59
2023/03/05 06:41:24;;;;;;;;;;;;;;;;;;5027140;28;20451;-59
2023/03/05 06:43:50;;;;;;;;;;;;;;;;;;5030441;28;19923;-59
2023/03/05 06:46:16;;;;;;;;;;;;;;;;;;5033911;28;20304;-59
2023/03/05 06:48:42;;;;;;;;;;;;;;;;;;5015296;28;20439;-59
2023/03/05 06:51:08;;;;;;;;;;;;;;;;;;5033545;28;19919;-59
2023/03/05 06:53:33;;;;;;;;;;;;;;;;;;5031049;28;20338;-59
2023/03/05 06:55:59;;;;;;;;;;;;;;;;;;5033349;28;19960;-59
2023/03/05 06:58:25;;;;;;;;;;;;;;;;;;5030358;28;19935;-59
2023/03/05 07:00:51;;;;;;;;;;;;;;;;;;5030689;28;19924;-59
2023/03/05 07:03:17;;;;;;;;;;;;;;;;;;5031993;28;19921;-59
2023/03/05 07:05:43;;;;;;;;;;;;;;;;;;5030169;28;20395;-59
2023/03/05 07:08:09;;;;;;;;;;;;;;;;;;5033602;28;19913;-58
2023/03/05 07:10:35;;;;;;;;;;;;;;;;;;5032204;28;19933;-59
2023/03/05 07:13:01;;;;;;;;;;;;;;;;;;5033246;28;20499;-59
2023/03/05 07:15:27;;;;;;;;;;;;;;;;;;5029683;28;19913;-59
2023/03/05 07:17:53;;;;;;;;;;;;;;;;;;5029323;28;19999;-59
2023/03/05 07:20:19;;;;;;;;;;;;;;;;;;5014357;28;19952;-59
2023/03/05 07:22:44;;;;;;;;;;;;;;;;;;5032176;28;19941;-59
2023/03/05 07:25:10;;;;;;;;;;;;;;;;;;5032677;28;20396;-59
2023/03/05 07:27:36;;;;;;;;;;;;;;;;;;5031447;28;20376;-59
2023/03/05 07:30:02;;;;;;;;;;;;;;;;;;5030755;28;19959;-59
2023/03/05 07:32:28;;;;;;;;;;;;;;;;;;5033221;28;20438;-59
2023/03/05 07:34:54;;;;;;;;;;;;;;;;;;5031299;28;20344;-59
2023/03/05 07:37:20;;;;;;;;;;;;;;;;;;5032101;28;20004;-59
2023/03/05 07:39:46;;;;;;;;;;;;;;;;;;5026905;28;19982;-59
2023/03/05 07:42:12;;;;;;;;;;;;;;;;;;5032099;28;19956;-58
2023/03/05 07:44:38;;;;;;;;;;;;;;;;;;5030665;28;19917;-59
2023/03/05 07:47:04;;;;;;;;;;;;;;;;;;5028352;28;19929;-58
2023/03/05 07:49:29;;;;;;;;;;;;;;;;;;5032230;28;20491;-59
2023/03/05 07:51:55;;;;;;;;;;;;;;;;;;5033069;28;19909;-59
2023/03/05 07:54:21;;;;;;;;;;;;;;;;;;5031912;28;20043;-59
2023/03/05 07:56:47;;;;;;;;;;;;;;;;;;5030773;28;19921;-59
2023/03/05 07:59:13;;;;;;;;;;;;;;;;;;5028475;28;19917;-59
2023/03/05 08:01:39;;;;;;;;;;;;;;;;;;5024623;28;20423;-58
2023/03/05 08:04:05;;;;;;;;;;;;;;;;;;5030275;28;20366;-59
2023/03/05 08:06:31;;;;;;;;;;;;;;;;;;5029440;28;19917;-59
2023/03/05 08:08:57;;;;;;;;;;;;;;;;;;5028521;28;20045;-59
2023/03/05 08:11:23;;;;;;;;;;;;;;;;;;5028039;28;20410;-59
2023/03/05 08:13:49;;;;;;;;;;;;;;;;;;5024034;28;19956;-59
2023/03/05 08:16:15;;;;;;;;;;;;;;;;;;5032048;28;19913;-59
2023/03/05 08:18:41;;;;;;;;;;;;;;;;;;5029688;28;20381;-59
2023/03/05 08:21:07;;;;;;;;;;;;;;;;;;5032217;28;19966;-59
2023/03/05 08:23:33;;;;;;;;;;;;;;;;;;5025324;28;20349;-58
2023/03/05 08:25:59;;;;;;;;;;;;;;;;;;5026449;28;19920;-59
2023/03/05 08:28:25;;;;;;;;;;;;;;;;;;5028418;28;19960;-59
2023/03/05 08:30:51;;;;;;;;;;;;;;;;;;5029578;28;19945;-59
2023/03/05 08:33:17;;;;;;;;;;;;;;;;;;5027570;28;19948;-59
2023/03/05 08:35:42;;;;;;;;;;;;;;;;;;5020611;28;19920;-60
2023/03/05 08:38:08;;;;;;;;;;;;;;;;;;5031164;28;19961;-59
2023/03/05 08:40:34;;;;;;;;;;;;;;;;;;5028256;28;20395;-59
2023/03/05 08:43:00;;;;;;;;;;;;;;;;;;5029828;28;19960;-59
2023/03/05 08:45:26;;;;;;;;;;;;;;;;;;5031696;28;19913;-59
2023/03/05 08:47:52;;;;;;;;;;;;;;;;;;5012084;28;19921;-60
2023/03/05 08:50:18;;;;;;;;;;;;;;;;;;5031815;28;19915;-59
2023/03/05 08:52:44;;;;;;;;;;;;;;;;;;5029249;28;19917;-59
2023/03/05 08:55:10;;;;;;;;;;;;;;;;;;5025921;28;20365;-59
2023/03/05 08:57:36;;;;;;;;;;;;;;;;;;5031166;28;19924;-59
2023/03/05 09:00:02;;;;;;;;;;;;;;;;;;5030001;28;19917;-58
2023/03/05 09:02:28;;;;;;;;;;;;;;;;;;5027063;28;19949;-59
2023/03/05 09:04:54;;;;;;;;;;;;;;;;;;5027461;28;19932;-59
2023/03/05 09:07:20;;;;;;;;;;;;;;;;;;5025283;28;19965;-59
2023/03/05 09:09:46;;;;;;;;;;;;;;;;;;5025514;28;19960;-59
2023/03/05 09:12:14;;;;;;;;;;;;;;;;;;5027109;28;19921;-59
2023/03/05 09:14:40;;;;;;;;;;;;;;;;;;5030614;28;19909;-59
2023/03/05 09:17:06;;;;;;;;;;;;;;;;;;5029880;28;20296;-58
2023/03/05 09:19:32;;;;;;;;;;;;;;;;;;5029870;28;20008;-59
2023/03/05 09:21:58;;;;;;;;;;;;;;;;;;5024120;28;19917;-59
2023/03/05 09:24:24;;;;;;;;;;;;;;;;;;5024378;28;20369;-58
2023/03/05 09:26:50;;;;;;;;;;;;;;;;;;5026789;28;19921;-58
2023/03/05 09:29:16;;;;;;;;;;;;;;;;;;5018613;28;19966;-58
2023/03/05 09:31:42;;;;;;;;;;;;;;;;;;5029516;28;20380;-59
2023/03/05 09:34:08;;;;;;;;;;;;;;;;;;5029136;28;19952;-58
2023/03/05 09:36:34;;;;;;;;;;;;;;;;;;5027114;28;20029;-59
2023/03/05 09:39:00;;;;;;;;;;;;;;;;;;5019124;28;19964;-59
2023/03/05 09:41:26;;;;;;;;;;;;;;;;;;5026920;28;19943;-59
2023/03/05 09:43:52;;;;;;;;;;;;;;;;;;5026969;28;19921;-59
2023/03/05 09:46:18;;;;;;;;;;;;;;;;;;5030031;28;19917;-58
2023/03/05 09:48:44;;;;;;;;;;;;;;;;;;5031201;28;20385;-58
2023/03/05 09:51:10;;;;;;;;;;;;;;;;;;5029082;28;20004;-59
2023/03/05 09:53:36;;;;;;;;;;;;;;;;;;5030744;28;19916;-59
2023/03/05 09:56:02;;;;;;;;;;;;;;;;;;5025354;28;20032;-59
2023/03/05 09:58:28;;;;;;;;;;;;;;;;;;5027408;28;20434;-59
2023/03/05 10:00:54;;;;;;;;;;;;;;;;;;5028201;28;19917;-59
2023/03/05 10:03:20;;;;;;;;;;;;;;;;;;5026676;28;19966;-59
2023/03/05 10:05:45;;;;;;;;;;;;;;;;;;5018678;28;20027;-60
2023/03/05 10:08:12;;;;;;;;;;;;;;;;;;5027358;28;19952;-59
2023/03/05 10:10:38;;;;;;;;;;;;;;;;;;5026505;28;20014;-59
2023/03/05 10:13:04;;;;;;;;;;;;;;;;;;5025835;28;19913;-59
2023/03/05 10:15:30;;;;;;;;;;;;;;;;;;5023927;28;19925;-59
2023/03/05 10:17:56;;;;;;;;;;;;;;;;;;5016805;28;19980;-59
2023/03/05 10:20:22;;;;;;;;;;;;;;;;;;5027116;28;20013;-59
2023/03/05 10:22:48;;;;;;;;;;;;;;;;;;5011588;28;19913;-58
2023/03/05 10:25:14;;;;;;;;;;;;;;;;;;5028349;28;19964;-59
2023/03/05 10:27:40;;;;;;;;;;;;;;;;;;5029527;28;19952;-59
2023/03/05 10:30:06;;;;;;;;;;;;;;;;;;5018936;28;20004;-59
2023/03/05 10:32:32;;;;;;;;;;;;;;;;;;5025455;28;19961;-59
2023/03/05 10:34:58;;;;;;;;;;;;;;;;;;5030832;28;20411;-59
2023/03/05 10:37:24;;;;;;;;;;;;;;;;;;5028259;28;19996;-59
2023/03/05 10:39:50;;;;;;;;;;;;;;;;;;5024275;28;20012;-59
2023/03/05 10:42:16;;;;;;;;;;;;;;;;;;5024881;28;20011;-59
2023/03/05 10:44:42;;;;;;;;;;;;;;;;;;5032570;28;20541;-59
2023/03/05 10:47:07;;;;;;;;;;;;;;;;;;5030510;28;20096;-59
2023/03/05 10:49:33;;;;;;;;;;;;;;;;;;5029326;28;19948;-59
2023/03/05 10:51:59;;;;;;;;;;;;;;;;;;5027477;28;20377;-59
2023/03/05 10:54:27;;;;;;;;;;;;;;;;;;5026467;28;20000;-59
2023/03/05 10:56:53;;;;;;;;;;;;;;;;;;5028684;28;19971;-59
2023/03/05 10:59:19;;;;;;;;;;;;;;;;;;5028773;28;19957;-59
2023/03/05 11:01:45;;;;;;;;;;;;;;;;;;5029118;28;20022;-60
2023/03/05 11:04:11;;;;;;;;;;;;;;;;;;5026928;28;19956;-59
2023/03/05 11:06:37;;;;;;;;;;;;;;;;;;5029501;28;19992;-59
2023/03/05 11:09:03;;;;;;;;;;;;;;;;;;5034236;28;19913;-59
2023/03/05 11:11:31;;;;;;;;;;;;;;;;;;5026907;28;19953;-59
2023/03/05 11:13:57;;;;;;;;;;;;;;;;;;5028112;28;19925;-59
2023/03/05 11:16:23;;;;;;;;;;;;;;;;;;5028695;28;19917;-59
2023/03/05 11:18:49;;;;;;;;;;;;;;;;;;5030083;28;19948;-59
2023/03/05 11:21:15;;;;;;;;;;;;;;;;;;5023551;28;19913;-59
2023/03/05 11:23:41;;;;;;;;;;;;;;;;;;5030699;28;19935;-59
2023/03/05 11:26:06;;;;;;;;;;;;;;;;;;5030371;28;19924;-59
2023/03/05 11:28:32;;;;;;;;;;;;;;;;;;5011027;28;20376;-59
2023/03/05 11:30:58;;;;;;;;;;;;;;;;;;5023239;28;19956;-59
2023/03/05 11:33:24;;;;;;;;;;;;;;;;;;5021470;28;19945;-59
2023/03/05 11:35:50;;;;;;;;;;;;;;;;;;5031103;28;19913;-59
2023/03/05 11:38:17;;;;;;;;;;;;;;;;;;5029724;28;20322;-59
2023/03/05 11:40:42;;;;;;;;;;;;;;;;;;5031702;28;19992;-59
2023/03/05 11:43:08;;;;;;;;;;;;;;;;;;5030192;28;19945;-59
2023/03/05 11:45:35;;;;;;;;;;;;;;;;;;5028310;28;20004;-59
2023/03/05 11:48:02;;;;;;;;;;;;;;;;;;5026042;28;19916;-59
2023/03/05 11:50:28;;;;;;;;;;;;;;;;;;5023005;28;20321;-59
2023/03/05 11:52:54;;;;;;;;;;;;;;;;;;5010872;28;19991;-59
2023/03/05 11:55:23;;;;;;;;;;;;;;;;;;5029942;28;19967;-59
2023/03/05 11:57:49;;;;;;;;;;;;;;;;;;5029552;28;19967;-59
2023/03/05 12:00:15;;;;;;;;;;;;;;;;;;5026770;28;19980;-59
2023/03/05 12:02:41;;;;;;;;;;;;;;;;;;5030427;28;20016;-59
2023/03/05 12:05:07;;;;;;;;;;;;;;;;;;5026468;28;19921;-59
2023/03/05 12:07:33;;;;;;;;;;;;;;;;;;5030666;28;20296;-59
2023/03/05 12:10:00;;;;;;;;;;;;;;;;;;5028719;28;19917;-59
2023/03/05 12:12:27;;;;;;;;;;;;;;;;;;5029724;28;19921;-59
2023/03/05 12:14:53;;;;;;;;;;;;;;;;;;5031530;28;19917;-60
2023/03/05 12:17:19;;;;;;;;;;;;;;;;;;5030301;28;19924;-59
2023/03/05 12:19:45;;;;;;;;;;;;;;;;;;5029170;28;19936;-59
2023/03/05 12:22:11;;;;;;;;;;;;;;;;;;5030414;28;19917;-58
2023/03/05 12:24:37;;;;;;;;;;;;;;;;;;5031219;28;20008;-58
2023/03/05 12:27:03;;;;;;;;;;;;;;;;;;5025967;28;19940;-59
2023/03/05 12:29:29;;;;;;;;;;;;;;;;;;5027153;28;19917;-59
2023/03/05 12:31:55;;;;;;;;;;;;;;;;;;5025686;28;20022;-59
2023/03/05 12:34:20;;;;;;;;;;;;;;;;;;5022778;28;19940;-59
2023/03/05 12:36:46;;;;;;;;;;;;;;;;;;5026381;28;19945;-58
2023/03/05 12:39:13;;;;;;;;;;;;;;;;;;5006180;28;20058;-58
2023/03/05 12:41:39;;;;;;;;;;;;;;;;;;5023254;28;20471;-59
2023/03/05 12:44:05;;;;;;;;;;;;;;;;;;5021255;28;19961;-59
2023/03/05 12:46:34;;;;;;;;;;;;;;;;;;5030410;28;19959;-59
2023/03/05 12:49:00;;;;;;;;;;;;;;;;;;5029046;28;20498;-59
2023/03/05 12:51:26;;;;;;;;;;;;;;;;;;5030098;28;20008;-58
2023/03/05 12:53:52;;;;;;;;;;;;;;;;;;5029405;28;19975;-59
2023/03/05 12:56:18;;;;;;;;;;;;;;;;;;5030477;28;19952;-60
2023/03/05 12:58:44;;;;;;;;;;;;;;;;;;5027777;28;19959;-59
2023/03/05 13:01:10;;;;;;;;;;;;;;;;;;5024724;28;20434;-59
2023/03/05 13:03:36;;;;;;;;;;;;;;;;;;5029024;28;19917;-59
2023/03/05 13:06:06;;;;;;;;;;;;;;;;;;5030245;28;20301;-59
2023/03/05 13:08:36;;;;;;;;;;;;;;;;;;5031272;28;20355;-59
2023/03/05 13:11:02;;;;;;;;;;;;;;;;;;5007638;28;19976;-59
2023/03/05 13:13:28;;;;;;;;;;;;;;;;;;5005088;28;20000;-58
2023/03/05 13:15:54;;;;;;;;;;;;;;;;;;5010110;28;19968;-59
2023/03/05 13:18:20;;;;;;;;;;;;;;;;;;5002198;28;19957;-58
2023/03/05 13:20:51;;;;;;;;;;;;;;;;;;5009628;28;19924;-58
2023/03/05 13:23:17;;;;;;;;;;;;;;;;;;5008035;28;19927;-59
2023/03/05 13:25:43;;;;;;;;;;;;;;;;;;5006333;28;20004;-59
2023/03/05 13:28:09;;;;;;;;;;;;;;;;;;5008809;28;20013;-59
2023/03/05 13:30:35;;;;;;;;;;;;;;;;;;5010240;28;20388;-59
2023/03/05 13:33:04;;;;;;;;;;;;;;;;;;5003517;28;19925;-58
2023/03/05 13:35:30;;;;;;;;;;;;;;;;;;5010141;28;19957;-59
2023/03/05 13:37:56;;;;;;;;;;;;;;;;;;5010003;28;19941;-59
2023/03/05 13:40:22;;;;;;;;;;;;;;;;;;5008058;28;19979;-59
2023/03/05 13:42:47;;;;;;;;;;;;;;;;;;5006704;28;19972;-59
2023/03/05 13:45:13;;;;;;;;;;;;;;;;;;5009754;28;19961;-58
2023/03/05 13:47:39;;;;;;;;;;;;;;;;;;5010897;28;19952;-59
2023/03/05 13:50:05;;;;;;;;;;;;;;;;;;5010043;28;19945;-59
2023/03/05 13:52:31;;;;;;;;;;;;;;;;;;5001125;28;19963;-58
2023/03/05 13:54:57;;;;;;;;;;;;;;;;;;5007001;28;19917;-57
2023/03/05 13:57:23;;;;;;;;;;;;;;;;;;5005194;28;20579;-59
2023/03/05 13:59:49;;;;;;;;;;;;;;;;;;5005599;28;19918;-59
2023/03/05 14:02:15;;;;;;;;;;;;;;;;;;5000889;28;19925;-59
2023/03/05 14:04:41;;;;;;;;;;;;;;;;;;5012157;28;20490;-58
2023/03/05 14:07:07;;;;;;;;;;;;;;;;;;5012263;28;19959;-59
2023/03/05 14:09:33;;;;;;;;;;;;;;;;;;5010841;28;19940;-59
2023/03/05 14:11:58;;;;;;;;;;;;;;;;;;5025488;28;19951;-59
2023/03/05 14:14:24;;;;;;;;;;;;;;;;;;5028632;28;20026;-58
2023/03/05 14:16:52;;;;;;;;;;;;;;;;;;5032462;28;21552;-58
2023/03/05 14:19:18;;;;;;;;;;;;;;;;;;5032038;28;20353;-59
2023/03/05 14:21:44;;;;;;;;;;;;;;;;;;5031981;28;20394;-58
2023/03/05 14:24:10;;;;;;;;;;;;;;;;;;5032473;28;19927;-58
2023/03/05 14:26:35;;;;;;;;;;;;;;;;;;5031043;28;19982;-58
2023/03/05 14:29:04;;;;;;;;;;;;;;;;;;5027197;28;19921;-58
2023/03/05 14:31:30;;;;;;;;;;;;;;;;;;5031684;28;19924;-59
2023/03/05 14:33:56;;;;;;;;;;;;;;;;;;5032949;28;19943;-58
2023/03/05 14:36:22;;;;;;;;;;;;;;;;;;5027326;28;19980;-58
2023/03/05 14:38:48;;;;;;;;;;;;;;;;;;5022147;28;19920;-58
2023/03/05 14:41:16;;;;;;;;;;;;;;;;;;5023636;28;20506;-57
2023/03/05 14:43:42;;;;;;;;;;;;;;;;;;5031740;28;19947;-58
2023/03/05 14:46:08;;;;;;;;;;;;;;;;;;5026523;28;20372;-57
2023/03/05 14:48:34;;;;;;;;;;;;;;;;;;5024563;28;20011;-57
2023/03/05 14:51:00;;;;;;;;;;;;;;;;;;5020247;28;20073;-58
2023/03/05 14:53:26;;;;;;;;;;;;;;;;;;5033292;28;19917;-58
2023/03/05 14:55:55;;;;;;;;;;;;;;;;;;5028733;28;20318;-57
2023/03/05 14:58:21;;;;;;;;;;;;;;;;;;5027331;28;19917;-57
2023/03/05 15:00:47;;;;;;;;;;;;;;;;;;5027741;28;20684;-56
2023/03/05 15:03:13;;;;;;;;;;;;;;;;;;5032621;28;19914;-57
2023/03/05 15:05:39;;;;;;;;;;;;;;;;;;5031902;28;20631;-57
2023/03/05 15:08:05;;;;;;;;;;;;;;;;;;5023019;28;19921;-58
2023/03/05 15:10:31;;;;;;;;;;;;;;;;;;5025045;28;20412;-58
2023/03/05 15:12:57;;;;;;;;;;;;;;;;;;5025459;28;19952;-58
2023/03/05 15:15:22;;;;;;;;;;;;;;;;;;5008538;28;20355;-57
2023/03/05 15:17:50;;;;;;;;;;;;;;;;;;5026169;28;19921;-58
2023/03/05 15:20:16;;;;;;;;;;;;;;;;;;5026594;28;19917;-58
2023/03/05 15:22:42;;;;;;;;;;;;;;;;;;5002908;28;19944;-58
2023/03/05 15:25:08;;;;;;;;;;;;;;;;;;5021414;28;19971;-58
2023/03/05 15:27:34;;;;;;;;;;;;;;;;;;5027112;28;19948;-58
2023/03/05 15:30:00;;;;;;;;;;;;;;;;;;5019809;28;19923;-58
2023/03/05 15:32:26;;;;;;;;;;;;;;;;;;5025141;28;19921;-58
2023/03/05 15:34:52;;;;;;;;;;;;;;;;;;5026327;28;19920;-57
2023/03/05 15:37:18;;;;;;;;;;;;;;;;;;5031769;28;19956;-58
2023/03/05 15:39:44;;;;;;;;;;;;;;;;;;5033157;28;19953;-58
2023/03/05 15:42:10;;;;;;;;;;;;;;;;;;5033606;28;19927;-57
2023/03/05 15:44:38;;;;;;;;;;;;;;;;;;5027812;28;19967;-58
2023/03/05 15:47:04;;;;;;;;;;;;;;;;;;5032821;28;19940;-57
2023/03/05 15:49:29;;;;;;;;;;;;;;;;;;5032438;28;19992;-57
2023/03/05 15:51:55;;;;;;;;;;;;;;;;;;5031579;28;20024;-57
2023/03/05 15:54:21;;;;;;;;;;;;;;;;;;5032971;28;19956;-57
2023/03/05 15:56:47;;;;;;;;;;;;;;;;;;5032932;28;19948;-57
2023/03/05 15:59:13;;;;;;;;;;;;;;;;;;5031764;28;20287;-57
2023/03/05 16:01:39;;;;;;;;;;;;;;;;;;5031128;28;20011;-57
2023/03/05 16:04:05;;;;;;;;;;;;;;;;;;5033264;28;20403;-57
2023/03/05 16:06:31;;;;;;;;;;;;;;;;;;5030729;28;20048;-58
2023/03/05 16:08:57;;;;;;;;;;;;;;;;;;5033337;28;19936;-57
2023/03/05 16:11:23;;;;;;;;;;;;;;;;;;5032166;28;19964;-58
2023/03/05 16:13:49;;;;;;;;;;;;;;;;;;5031184;28;19913;-57
2023/03/05 16:16:15;;;;;;;;;;;;;;;;;;5030407;28;19920;-57
2023/03/05 16:18:41;;;;;;;;;;;;;;;;;;5032247;28;19917;-57
2023/03/05 16:21:07;;;;;;;;;;;;;;;;;;5032197;28;19956;-57
2023/03/05 16:23:33;;;;;;;;;;;;;;;;;;5031223;28;19943;-58
2023/03/05 16:25:59;;;;;;;;;;;;;;;;;;5032356;28;19982;-57
2023/03/05 16:28:24;;;;;;;;;;;;;;;;;;5031959;28;20436;-57
2023/03/05 16:30:50;;;;;;;;;;;;;;;;;;5029860;28;19978;-58
2023/03/05 16:33:16;;;;;;;;;;;;;;;;;;5031847;28;20566;-58
2023/03/05 16:35:42;;;;;;;;;;;;;;;;;;5030491;28;20000;-58